• Join FlightAware (Why Join?)
  • Login
  • US Flag 
02:36AM EDT


 

Airport Tracker/Info


-or-


 

Live Flight TrackerFlight Track Log ✈ UAL5914 ✈ 19-Apr-2013 ✈ KDEN - KGUC

Flight Track Log - Related Links

Times and Time Zones

All times are in EDT time to prevent confusion due to time zone crossing. See the UAL5914 flight status page for this flight to view local times or setup timezone preferences in your user account.

Time Position Orientation Groundspeed Altitude Reporting Facility
EDT Latitude Longitude Course Direction KTS MPH feet Rate Location/Type
10:22PM 39.8411 -104.7606 249° West 172 198 7,800  Level Denver Center
10:23PM 39.8150 -104.8475 249° West 241 277 10,100 2,460 Climbing Denver Center
10:24PM 39.7833 -104.9414 246° West 281 323 12,900 2,580 Climbing Denver Center
10:25PM 39.7478 -105.0464 246° West 293 337 15,500 2,160 Climbing Denver Center
10:26PM 39.7108 -105.1556 246° West 328 377 17,400 1,860 Climbing Denver Center
10:27PM 39.6711 -105.2711 246° West 347 399 19,400 1,980 Climbing Denver Center
10:28PM 39.6281 -105.3986 246° West 358 412 21,500 1,980 Climbing Denver Center
10:29PM 39.5869 -105.5192 246° West 364 419 23,500 1,800 Climbing Denver Center
10:30PM 39.5483 -105.6297 246° West 362 417 25,200 1,200 Climbing Denver Center
10:31PM 39.4494 -105.7383 220° Southwest 404 465 26,000 360 Climbing Denver Center
10:32PM 39.3547 -105.8264 216° Southwest 415 478 26,000  Level Denver Center
10:33PM 39.2569 -105.9164 215° Southwest 426 490 26,000 -420 Level Denver Center
10:34PM 39.1603 -106.0036 215° Southwest 423 487 25,200 -1,080 Descending Denver Center
10:35PM 39.0692 -106.0864 215° Southwest 404 465 23,800 -1,620 Descending Denver Center
10:36PM 38.9792 -106.1675 215° Southwest 383 441 21,900 -1,800 Descending Denver Center
10:37PM 38.9022 -106.2372 215° Southwest 376 433 20,100 -1,080 Descending Denver Center
10:38PM 38.8225 -106.3083 215° Southwest 360 414 19,700 -1,080 Descending Denver Center
10:39PM 38.7325 -106.3919 216° Southwest 344 396 17,900 -1,320 Descending Denver Center
10:40PM 38.6583 -106.4569 214° Southwest 333 383 17,000 -480 Descending Denver Center
10:41PM 38.5928 -106.5169 216° Southwest 311 358 17,000  Level Denver Center
10:42PM 38.5258 -106.5517 202° Southwest 285 328 17,000 -120 Level Denver Center
10:43PM 38.4558 -106.5736 194° South 269 310 16,800 -780 Descending Denver Center
10:44PM 38.4172 -106.6442 235° Southwest 265 305 15,500 -960 Descending Denver Center
10:45PM 38.4633 -106.6881 323° Northwest 241 277 14,900 -600 Descending Denver Center
10:47PM 38.5467 -106.7306 265° West  Level FlightAware Approximate